createdAt,value
2019-05-09T00:01:14.853Z,8.50
2019-05-09T00:03:44.564Z,8.40
2019-05-09T00:06:13.969Z,8.40
2019-05-09T00:08:44.175Z,8.40
2019-05-09T00:11:14.745Z,8.40
2019-05-09T00:13:44.246Z,8.40
2019-05-09T00:16:14.563Z,8.40
2019-05-09T00:18:44.494Z,8.40
2019-05-09T00:21:18.852Z,8.30
2019-05-09T00:23:48.019Z,8.30
2019-05-09T00:26:17.301Z,8.30
2019-05-09T00:28:49.692Z,8.30
2019-05-09T00:31:47.123Z,8.30
2019-05-09T00:34:24.063Z,8.20
2019-05-09T00:36:53.966Z,8.20
2019-05-09T00:39:23.720Z,8.10
2019-05-09T00:41:53.879Z,8.10
2019-05-09T00:44:26.839Z,8.20
2019-05-09T00:47:07.830Z,8.20
2019-05-09T00:49:37.125Z,8.20
2019-05-09T00:52:06.349Z,8.10
2019-05-09T00:54:35.599Z,8.10
2019-05-09T00:57:04.857Z,8.10
2019-05-09T00:59:34.184Z,8.10
2019-05-09T01:02:04.089Z,8.20
2019-05-09T01:04:33.772Z,8.20
2019-05-09T01:07:03.572Z,8.20
2019-05-09T01:09:33.511Z,8.20
2019-05-09T01:12:04.056Z,8.20
2019-05-09T01:14:34.125Z,8.30
2019-05-09T01:17:04.273Z,8.30
2019-05-09T01:19:34.079Z,8.20
2019-05-09T01:22:03.865Z,8.20
2019-05-09T01:24:33.773Z,8.20
2019-05-09T01:27:03.750Z,8.10
2019-05-09T01:29:33.723Z,8.10
2019-05-09T01:32:06.464Z,8.00
2019-05-09T01:34:36.139Z,8.00
2019-05-09T01:37:06.567Z,8.00
2019-05-09T01:39:36.765Z,7.90
2019-05-09T01:42:06.829Z,7.90
2019-05-09T01:44:36.259Z,7.80
2019-05-09T01:47:05.902Z,7.80
2019-05-09T01:49:35.060Z,7.80
2019-05-09T01:52:04.954Z,7.70
2019-05-09T01:54:36.084Z,7.70
2019-05-09T01:57:05.383Z,7.70
2019-05-09T01:59:34.706Z,7.70
2019-05-09T02:02:08.819Z,7.60
2019-05-09T02:04:35.752Z,7.60
2019-05-09T02:07:05.736Z,7.60
2019-05-09T02:09:35.557Z,7.60
2019-05-09T02:12:05.324Z,7.60
2019-05-09T02:14:48.052Z,7.60
2019-05-09T02:17:24.907Z,7.50
2019-05-09T02:19:54.174Z,7.60
2019-05-09T02:22:36.264Z,7.60
2019-05-09T02:25:09.439Z,7.60
2019-05-09T02:27:38.729Z,7.60
2019-05-09T02:30:10.347Z,7.60
2019-05-09T02:32:39.597Z,7.60
2019-05-09T02:35:09.784Z,7.60
2019-05-09T02:37:39.311Z,7.60
2019-05-09T02:40:10.138Z,7.50
2019-05-09T02:42:40.179Z,7.50
2019-05-09T02:45:10.928Z,7.50
2019-05-09T02:47:40.453Z,7.50
2019-05-09T02:50:10.183Z,7.50
2019-05-09T02:52:39.995Z,7.40
2019-05-09T02:55:10.892Z,7.40
2019-05-09T02:57:40.206Z,7.30
2019-05-09T03:00:31.976Z,7.30
2019-05-09T03:03:09.451Z,7.30
2019-05-09T03:05:38.840Z,7.30
2019-05-09T03:08:09.522Z,7.30
2019-05-09T03:10:39.687Z,7.30
2019-05-09T03:13:09.506Z,7.30
2019-05-09T03:15:39.493Z,7.30
2019-05-09T03:18:09.612Z,7.30
2019-05-09T03:20:58.271Z,7.40
2019-05-09T03:23:28.530Z,7.30
2019-05-09T03:25:58.774Z,7.30
2019-05-09T03:28:59.791Z,7.30
2019-05-09T03:31:30.512Z,7.30
2019-05-09T03:33:59.950Z,7.30
2019-05-09T03:36:29.539Z,7.40
2019-05-09T03:38:58.695Z,7.30
2019-05-09T03:41:28.362Z,7.30
2019-05-09T03:43:58.684Z,7.30
2019-05-09T03:46:50.100Z,7.30
2019-05-09T03:49:20.044Z,7.30
2019-05-09T03:51:49.277Z,7.30
2019-05-09T03:54:18.709Z,7.30
2019-05-09T03:56:52.979Z,7.40
2019-05-09T03:59:22.855Z,7.40
2019-05-09T04:01:52.089Z,7.40
2019-05-09T04:04:21.257Z,7.40
2019-05-09T04:06:51.050Z,7.30
2019-05-09T04:09:20.363Z,7.30
2019-05-09T04:11:49.507Z,7.40
2019-05-09T04:14:22.781Z,7.30
2019-05-09T04:16:52.028Z,7.30
2019-05-09T04:19:21.269Z,7.40
2019-05-09T04:21:50.514Z,7.40
2019-05-09T04:24:19.689Z,7.50
2019-05-09T04:27:10.878Z,7.50
2019-05-09T04:29:40.479Z,7.50
2019-05-09T04:32:09.710Z,7.60
2019-05-09T04:34:39.247Z,7.60
2019-05-09T04:37:12.069Z,7.70
2019-05-09T04:39:40.691Z,7.80
2019-05-09T04:42:10.077Z,7.80
2019-05-09T04:44:57.291Z,7.90
2019-05-09T04:47:25.182Z,7.90
2019-05-09T04:49:54.827Z,7.90
2019-05-09T04:52:24.554Z,7.90
2019-05-09T04:54:54.356Z,7.90
2019-05-09T04:57:23.679Z,8.00
2019-05-09T04:59:52.903Z,8.10
2019-05-09T05:02:39.386Z,8.20
2019-05-09T05:05:09.057Z,8.30
2019-05-09T05:07:38.308Z,8.40
2019-05-09T05:10:09.111Z,8.50
2019-05-09T05:12:38.416Z,8.60
2019-05-09T05:15:08.137Z,8.70
2019-05-09T05:17:37.856Z,8.80
2019-05-09T05:20:10.550Z,8.90
2019-05-09T05:22:47.686Z,9.00
2019-05-09T05:25:18.658Z,9.20
2019-05-09T05:27:48.286Z,9.40
2019-05-09T05:30:18.098Z,9.50
2019-05-09T05:33:12.788Z,9.70
2019-05-09T05:35:44.761Z,9.80
2019-05-09T05:38:14.448Z,10.00
2019-05-09T05:40:46.420Z,10.30
2019-05-09T05:43:14.783Z,10.60
2019-05-09T05:46:07.664Z,11.00
2019-05-09T05:48:38.682Z,11.70
2019-05-09T05:51:08.291Z,12.50
2019-05-09T05:53:38.073Z,13.10
2019-05-09T05:56:08.560Z,13.60
2019-05-09T05:58:38.699Z,13.90
2019-05-09T06:01:08.696Z,14.20
2019-05-09T06:03:37.888Z,14.30
2019-05-09T06:06:08.790Z,14.40
2019-05-09T06:08:38.262Z,14.60
2019-05-09T06:11:11.900Z,14.80
2019-05-09T06:13:53.278Z,15.00
2019-05-09T06:16:09.334Z,14.60
2019-05-09T06:18:38.618Z,14.10
2019-05-09T06:21:08.919Z,14.20
2019-05-09T06:23:38.540Z,14.50
2019-05-09T06:26:09.835Z,14.20
2019-05-09T06:28:38.862Z,13.70
2019-05-09T06:31:08.504Z,13.40
2019-05-09T06:33:46.500Z,13.10
2019-05-09T06:36:09.157Z,12.90
2019-05-09T06:38:38.426Z,12.80
2019-05-09T06:41:08.863Z,12.70
2019-05-09T06:43:40.319Z,12.80
2019-05-09T06:46:34.506Z,12.90
2019-05-09T06:49:21.309Z,13.10
2019-05-09T06:51:39.583Z,13.30
2019-05-09T06:54:09.488Z,13.30
2019-05-09T06:56:39.172Z,13.50
2019-05-09T06:59:08.791Z,13.60
2019-05-09T07:01:57.463Z,13.80
2019-05-09T07:04:38.051Z,13.90
2019-05-09T07:07:12.096Z,14.00
2019-05-09T07:09:51.604Z,14.00
2019-05-09T07:12:20.854Z,13.90
2019-05-09T07:14:50.383Z,13.80
2019-05-09T07:17:19.653Z,13.80
2019-05-09T07:19:49.402Z,13.70
2019-05-09T07:22:39.207Z,13.80
2019-05-09T07:25:27.967Z,13.80
2019-05-09T07:27:58.635Z,13.90
2019-05-09T07:30:50.515Z,14.00
2019-05-09T07:33:33.770Z,14.00
2019-05-09T07:36:03.210Z,13.90
2019-05-09T07:38:33.366Z,13.90
2019-05-09T07:41:02.870Z,13.80
2019-05-09T07:43:32.193Z,13.80
2019-05-09T07:46:05.754Z,13.80
2019-05-09T07:48:37.927Z,13.90
2019-05-09T07:51:07.769Z,13.90
2019-05-09T07:53:38.050Z,14.00
2019-05-09T07:56:08.104Z,14.10
2019-05-09T07:58:37.943Z,14.10
2019-05-09T08:01:08.591Z,14.10
2019-05-09T08:03:38.678Z,14.20
2019-05-09T08:06:09.032Z,14.40
2019-05-09T08:08:38.797Z,14.50
2019-05-09T08:11:09.040Z,14.50
2019-05-09T08:13:39.274Z,14.50
2019-05-09T08:16:14.191Z,14.60
2019-05-09T08:18:40.803Z,14.70
2019-05-09T08:21:10.050Z,14.80
2019-05-09T08:23:39.299Z,14.80
2019-05-09T08:26:09.239Z,14.90
2019-05-09T08:28:39.275Z,14.90
2019-05-09T08:31:08.618Z,15.00
2019-05-09T08:33:38.340Z,15.00
2019-05-09T08:36:08.782Z,15.00
2019-05-09T08:38:39.333Z,14.80
2019-05-09T08:41:13.815Z,14.70
2019-05-09T08:43:43.445Z,14.60
2019-05-09T08:46:13.819Z,14.60
2019-05-09T08:48:43.931Z,14.80
2019-05-09T08:51:20.656Z,15.10
2019-05-09T08:53:49.986Z,15.30
2019-05-09T08:56:19.336Z,15.60
2019-05-09T08:58:48.727Z,15.70
2019-05-09T09:01:30.653Z,15.90
2019-05-09T09:03:48.947Z,16.00
2019-05-09T09:06:18.425Z,16.20
2019-05-09T09:08:48.428Z,16.50
2019-05-09T09:11:18.878Z,16.70
2019-05-09T09:13:48.509Z,16.90
2019-05-09T09:16:21.612Z,17.00
2019-05-09T09:18:48.884Z,17.10
2019-05-09T09:21:18.493Z,17.30
2019-05-09T09:23:50.608Z,17.30
2019-05-09T09:26:18.674Z,17.50
2019-05-09T09:28:48.526Z,17.90
2019-05-09T09:31:18.148Z,18.30
2019-05-09T09:33:48.152Z,18.50
2019-05-09T09:36:17.997Z,18.30
2019-05-09T09:38:48.188Z,18.50
2019-05-09T09:41:18.289Z,18.50
2019-05-09T09:43:47.894Z,18.00
2019-05-09T09:46:18.184Z,17.80
2019-05-09T09:48:48.283Z,17.90
2019-05-09T09:51:18.797Z,17.80
2019-05-09T09:53:48.927Z,17.80
2019-05-09T09:56:22.322Z,17.70
2019-05-09T09:58:57.746Z,17.70
2019-05-09T10:01:29.806Z,17.70
2019-05-09T10:04:16.543Z,17.50
2019-05-09T10:06:38.789Z,17.30
2019-05-09T10:09:09.539Z,17.30
2019-05-09T10:11:39.159Z,17.20
2019-05-09T10:14:10.643Z,17.20
2019-05-09T10:16:47.757Z,17.00
2019-05-09T10:19:27.822Z,16.90
2019-05-09T10:21:58.763Z,17.00
2019-05-09T10:24:28.296Z,16.70
2019-05-09T10:27:08.661Z,16.40
2019-05-09T10:29:39.017Z,16.40
2019-05-09T10:32:11.693Z,16.30
2019-05-09T10:34:41.194Z,16.30
2019-05-09T10:37:10.442Z,16.40
2019-05-09T10:39:39.683Z,16.30
2019-05-09T10:42:31.160Z,16.30
2019-05-09T10:45:22.758Z,15.90
2019-05-09T10:47:52.066Z,15.80
2019-05-09T10:50:21.318Z,15.70
2019-05-09T10:52:50.917Z,15.70
2019-05-09T10:55:20.110Z,15.70
2019-05-09T10:57:52.244Z,15.70
2019-05-09T11:00:20.759Z,15.70
2019-05-09T11:02:50.006Z,15.70
2019-05-09T11:05:19.711Z,15.70
2019-05-09T11:07:49.570Z,15.80
2019-05-09T11:10:27.703Z,15.90
2019-05-09T11:12:50.963Z,16.20
2019-05-09T11:15:20.184Z,16.40
2019-05-09T11:17:49.521Z,16.40
2019-05-09T11:20:19.503Z,16.50
2019-05-09T11:22:49.000Z,16.50
2019-05-09T11:25:19.039Z,16.40
2019-05-09T11:28:06.987Z,16.20
2019-05-09T11:30:19.839Z,16.10
2019-05-09T11:32:49.387Z,16.00
2019-05-09T11:35:19.255Z,16.00
2019-05-09T11:37:48.823Z,15.80
2019-05-09T11:40:18.480Z,15.70
2019-05-09T11:42:48.290Z,15.60
2019-05-09T11:45:18.163Z,15.30
2019-05-09T11:47:47.618Z,15.30
2019-05-09T11:50:22.135Z,15.30
2019-05-09T11:52:49.113Z,15.30
2019-05-09T11:55:29.616Z,15.40
2019-05-09T11:57:49.733Z,15.50
2019-05-09T12:00:19.593Z,15.50
2019-05-09T12:02:50.049Z,15.40
2019-05-09T12:05:19.412Z,15.50
2019-05-09T12:07:48.781Z,15.50
2019-05-09T12:10:18.713Z,15.50
2019-05-09T12:12:48.972Z,15.60
2019-05-09T12:15:18.900Z,15.70
2019-05-09T12:17:57.504Z,15.90
2019-05-09T12:20:19.851Z,16.10
2019-05-09T12:22:49.202Z,16.30
2019-05-09T12:25:18.572Z,16.60
2019-05-09T12:27:48.772Z,16.90
2019-05-09T12:30:18.851Z,17.20
2019-05-09T12:32:48.372Z,17.00
2019-05-09T12:35:19.060Z,16.80
2019-05-09T12:37:48.534Z,16.70
2019-05-09T12:40:20.052Z,16.60
2019-05-09T12:42:50.130Z,16.30
2019-05-09T12:45:19.772Z,15.90
2019-05-09T12:47:49.088Z,15.60
2019-05-09T12:50:18.786Z,15.20
2019-05-09T12:52:48.869Z,15.20
2019-05-09T12:55:18.291Z,15.00
2019-05-09T12:57:48.961Z,15.00
2019-05-09T13:00:20.106Z,15.30
2019-05-09T13:02:50.053Z,15.80
2019-05-09T13:05:19.402Z,16.00
2019-05-09T13:07:48.650Z,16.10
2019-05-09T13:10:19.431Z,16.10
2019-05-09T13:12:49.669Z,16.00
2019-05-09T13:15:21.195Z,16.20
2019-05-09T13:17:51.512Z,16.30
2019-05-09T13:20:20.809Z,16.60
2019-05-09T13:22:50.162Z,16.70
2019-05-09T13:25:19.457Z,16.50
2019-05-09T13:27:52.487Z,16.40
2019-05-09T13:30:19.684Z,16.30
2019-05-09T13:32:48.970Z,16.30
2019-05-09T13:35:19.830Z,16.40
2019-05-09T13:37:49.295Z,16.30
2019-05-09T13:40:19.142Z,16.20
2019-05-09T13:42:49.494Z,16.20
2019-05-09T13:45:19.392Z,16.00
2019-05-09T13:47:49.677Z,16.00
2019-05-09T13:50:19.028Z,16.10
2019-05-09T13:52:48.665Z,16.40
2019-05-09T13:55:18.149Z,16.80
2019-05-09T13:57:48.670Z,17.40
2019-05-09T14:00:19.601Z,17.50
2019-05-09T14:02:49.173Z,17.60
2019-05-09T14:05:19.422Z,17.90
2019-05-09T14:07:53.884Z,17.90
2019-05-09T14:10:20.312Z,17.70
2019-05-09T14:13:04.459Z,17.70
2019-05-09T14:15:21.009Z,17.70
2019-05-09T14:17:53.758Z,17.60
2019-05-09T14:20:21.305Z,17.70
2019-05-09T14:22:50.492Z,17.90
2019-05-09T14:25:20.423Z,17.90
2019-05-09T14:27:52.384Z,18.10
2019-05-09T14:30:21.335Z,18.00
2019-05-09T14:32:50.974Z,17.90
2019-05-09T14:35:20.207Z,18.10
2019-05-09T14:37:49.451Z,18.10
2019-05-09T14:40:18.767Z,18.20
2019-05-09T14:42:49.525Z,18.10
2019-05-09T14:45:19.362Z,18.20
2019-05-09T14:47:48.601Z,18.20
2019-05-09T14:50:18.340Z,18.00
2019-05-09T14:52:49.093Z,17.90
2019-05-09T14:55:18.562Z,18.00
2019-05-09T14:57:48.121Z,18.00
2019-05-09T15:00:18.991Z,18.10
2019-05-09T15:02:49.027Z,18.10
2019-05-09T15:05:19.052Z,18.00
2019-05-09T15:07:48.318Z,17.90
2019-05-09T15:10:18.825Z,18.10
2019-05-09T15:12:48.730Z,18.20
2019-05-09T15:15:18.794Z,18.20
2019-05-09T15:17:49.306Z,18.20
2019-05-09T15:20:19.442Z,18.30
2019-05-09T15:22:48.601Z,18.20
2019-05-09T15:25:19.613Z,18.10
2019-05-09T15:27:49.529Z,18.00
2019-05-09T15:30:18.965Z,17.80
2019-05-09T15:32:51.577Z,17.60
2019-05-09T15:35:19.334Z,17.30
2019-05-09T15:37:48.543Z,17.10
2019-05-09T15:40:18.003Z,16.80
2019-05-09T15:42:48.033Z,16.60
2019-05-09T15:45:18.357Z,16.50
2019-05-09T15:47:48.254Z,16.40
2019-05-09T15:50:22.775Z,16.10
2019-05-09T15:52:49.316Z,16.00
2019-05-09T15:55:18.605Z,15.90
2019-05-09T15:57:48.564Z,15.80
2019-05-09T16:00:19.015Z,15.60
2019-05-09T16:02:49.379Z,15.50
2019-05-09T16:05:19.356Z,15.30
2019-05-09T16:07:50.068Z,14.90
2019-05-09T16:10:19.531Z,14.40
2019-05-09T16:12:48.920Z,14.20
2019-05-09T16:15:18.868Z,13.90
2019-05-09T16:17:48.620Z,13.80
2019-05-09T16:20:36.072Z,13.70
2019-05-09T16:22:49.443Z,13.70
2019-05-09T16:25:18.980Z,13.60
2019-05-09T16:27:48.703Z,13.70
2019-05-09T16:30:18.514Z,13.80
2019-05-09T16:32:48.210Z,13.90
2019-05-09T16:35:18.173Z,13.80
2019-05-09T16:38:00.892Z,13.70
2019-05-09T16:40:19.238Z,13.70
2019-05-09T16:42:48.578Z,13.60
2019-05-09T16:45:18.356Z,13.50
2019-05-09T16:47:48.537Z,13.40
2019-05-09T16:50:19.510Z,13.30
2019-05-09T16:52:49.081Z,13.10
2019-05-09T16:55:31.097Z,13.00
2019-05-09T16:57:57.526Z,12.90
2019-05-09T17:00:47.951Z,12.80
2019-05-09T17:03:17.867Z,12.80
2019-05-09T17:05:48.080Z,12.90
2019-05-09T17:08:17.896Z,12.90
2019-05-09T17:10:48.663Z,12.90
2019-05-09T17:13:20.734Z,13.00
2019-05-09T17:15:50.324Z,13.00
2019-05-09T17:18:19.776Z,13.00
2019-05-09T17:21:17.787Z,12.90
2019-05-09T17:23:35.267Z,12.90
2019-05-09T17:26:05.145Z,12.80
2019-05-09T17:28:34.467Z,12.80
2019-05-09T17:31:04.024Z,12.80
2019-05-09T17:33:33.378Z,12.70
2019-05-09T17:36:03.072Z,12.50
2019-05-09T17:38:32.261Z,12.40
2019-05-09T17:41:01.820Z,12.40
2019-05-09T17:43:31.088Z,12.50
2019-05-09T17:46:00.305Z,12.60
2019-05-09T17:48:29.625Z,12.70
2019-05-09T17:50:58.874Z,12.70
2019-05-09T17:53:31.227Z,12.80
2019-05-09T17:56:00.108Z,12.70
2019-05-09T17:58:33.296Z,12.70
2019-05-09T18:01:00.630Z,12.60
2019-05-09T18:03:29.928Z,12.60
2019-05-09T18:05:59.257Z,12.60
2019-05-09T18:08:28.657Z,12.60
2019-05-09T18:10:58.461Z,12.60
2019-05-09T18:13:30.478Z,12.50
2019-05-09T18:15:59.333Z,12.60
2019-05-09T18:18:28.961Z,12.50
2019-05-09T18:20:58.516Z,12.50
2019-05-09T18:23:28.490Z,12.50
2019-05-09T18:25:58.778Z,12.50
2019-05-09T18:28:29.279Z,12.40
2019-05-09T18:30:58.816Z,12.30
2019-05-09T18:33:58.124Z,12.20
2019-05-09T18:36:28.203Z,12.20
2019-05-09T18:38:58.585Z,12.20
2019-05-09T18:41:28.557Z,12.20
2019-05-09T18:43:58.429Z,12.20
2019-05-09T18:46:28.068Z,12.20
2019-05-09T18:48:57.465Z,12.20
2019-05-09T18:51:28.716Z,12.20
2019-05-09T18:53:57.747Z,12.20
2019-05-09T18:56:26.987Z,12.20
2019-05-09T18:58:56.172Z,12.20
2019-05-09T19:01:25.946Z,12.20
2019-05-09T19:03:55.108Z,12.10
2019-05-09T19:06:24.408Z,12.10
2019-05-09T19:08:53.939Z,12.10
2019-05-09T19:11:23.170Z,12.10
2019-05-09T19:13:52.584Z,12.00
2019-05-09T19:16:56.187Z,12.00
2019-05-09T19:19:35.092Z,11.90
2019-05-09T19:22:21.103Z,11.80
2019-05-09T19:24:36.350Z,11.70
2019-05-09T19:27:05.613Z,11.60
2019-05-09T19:29:34.917Z,11.60
2019-05-09T19:32:04.276Z,11.60
2019-05-09T19:34:33.774Z,11.60
2019-05-09T19:37:02.949Z,11.70
2019-05-09T19:39:32.203Z,11.80
2019-05-09T19:42:01.750Z,11.70
2019-05-09T19:44:31.376Z,11.80
2019-05-09T19:47:01.606Z,11.80
2019-05-09T19:49:31.269Z,11.70
2019-05-09T19:52:00.500Z,11.70
2019-05-09T19:54:30.095Z,11.70
2019-05-09T19:56:59.267Z,11.70
2019-05-09T19:59:28.701Z,11.70
2019-05-09T20:01:57.871Z,11.70
2019-05-09T20:04:27.787Z,11.60
2019-05-09T20:06:57.093Z,11.60
2019-05-09T20:09:32.398Z,11.50
2019-05-09T20:12:20.381Z,11.30
2019-05-09T20:14:51.836Z,11.20
2019-05-09T20:17:21.414Z,11.10
2019-05-09T20:19:51.108Z,11.00
2019-05-09T20:22:20.925Z,11.00
2019-05-09T20:24:50.138Z,10.90
2019-05-09T20:27:19.401Z,10.80
2019-05-09T20:29:48.947Z,10.80
2019-05-09T20:32:18.227Z,10.70
2019-05-09T20:34:47.469Z,10.60
2019-05-09T20:37:17.010Z,10.60
2019-05-09T20:39:46.703Z,10.50
2019-05-09T20:42:16.054Z,10.60
2019-05-09T20:44:45.416Z,10.60
2019-05-09T20:47:14.800Z,10.60
2019-05-09T20:49:44.418Z,10.60
2019-05-09T20:52:13.877Z,10.60
2019-05-09T20:54:43.763Z,10.70
2019-05-09T20:57:13.343Z,10.80
2019-05-09T20:59:42.784Z,10.80
2019-05-09T21:02:12.150Z,10.90
2019-05-09T21:04:41.919Z,10.90
2019-05-09T21:07:11.700Z,10.90
2019-05-09T21:09:41.480Z,10.90
2019-05-09T21:12:11.270Z,10.90
2019-05-09T21:14:40.988Z,10.90
2019-05-09T21:17:10.753Z,10.90
2019-05-09T21:19:40.158Z,10.90
2019-05-09T21:22:09.674Z,10.90
2019-05-09T21:24:39.392Z,10.90
2019-05-09T21:27:08.744Z,10.90
2019-05-09T21:29:38.126Z,10.90
2019-05-09T21:32:07.963Z,10.90
2019-05-09T21:34:37.227Z,11.00
2019-05-09T21:37:06.831Z,11.00
2019-05-09T21:39:37.354Z,11.00
2019-05-09T21:42:06.690Z,11.00
2019-05-09T21:44:36.840Z,11.00
2019-05-09T21:47:06.484Z,11.00
2019-05-09T21:49:36.090Z,11.00
2019-05-09T21:52:05.289Z,11.00
2019-05-09T21:54:34.895Z,11.00
2019-05-09T21:57:04.073Z,10.90
2019-05-09T21:59:34.016Z,10.90
2019-05-09T22:02:03.190Z,10.90
2019-05-09T22:04:32.436Z,11.00
2019-05-09T22:07:02.075Z,11.00
2019-05-09T22:09:31.314Z,11.00
2019-05-09T22:12:00.907Z,11.00
2019-05-09T22:14:30.545Z,11.00
2019-05-09T22:17:03.769Z,11.00
2019-05-09T22:19:33.003Z,11.00
2019-05-09T22:22:02.324Z,10.90
2019-05-09T22:24:31.653Z,10.90
2019-05-09T22:27:01.587Z,10.80
2019-05-09T22:29:30.969Z,10.80
2019-05-09T22:32:00.189Z,10.80
2019-05-09T22:34:29.463Z,10.70
2019-05-09T22:36:58.710Z,10.70
2019-05-09T22:39:28.033Z,10.70
2019-05-09T22:41:57.255Z,10.70
2019-05-09T22:44:26.860Z,10.60
2019-05-09T22:46:56.442Z,10.60
2019-05-09T22:49:26.375Z,10.60
2019-05-09T22:51:55.717Z,10.70
2019-05-09T22:54:24.890Z,10.70
2019-05-09T22:56:54.321Z,10.70
2019-05-09T22:59:23.923Z,10.70
2019-05-09T23:01:53.158Z,10.60
2019-05-09T23:04:22.680Z,10.60
2019-05-09T23:06:52.288Z,10.70
2019-05-09T23:09:21.454Z,10.70
2019-05-09T23:11:50.615Z,10.60
2019-05-09T23:14:20.159Z,10.60
2019-05-09T23:16:50.723Z,10.60
2019-05-09T23:19:20.553Z,10.60
2019-05-09T23:21:49.883Z,10.70
2019-05-09T23:24:28.704Z,10.60
2019-05-09T23:26:51.844Z,10.70
2019-05-09T23:29:21.332Z,10.70
2019-05-09T23:31:56.812Z,10.70
2019-05-09T23:34:26.061Z,10.70
2019-05-09T23:36:55.879Z,10.70
2019-05-09T23:39:27.257Z,10.70
2019-05-09T23:41:56.508Z,10.70
2019-05-09T23:44:25.782Z,10.60
2019-05-09T23:46:55.093Z,10.60
2019-05-09T23:49:24.526Z,10.60
2019-05-09T23:51:54.179Z,10.60
2019-05-09T23:54:46.600Z,10.60
2019-05-09T23:57:30.222Z,10.70
